sensor_id;sensor_type;location;lat;lon;timestamp;pressure;altitude;pressure_sealevel;temperature;humidity
9474;BME280;8865;47.636;7.692;2022-10-15T00:01:09;98001.41;;;15.38;100.00
9474;BME280;8865;47.636;7.692;2022-10-15T00:03:38;98004.88;;;15.39;100.00
9474;BME280;8865;47.636;7.692;2022-10-15T00:06:09;97999.59;;;15.39;100.00
9474;BME280;8865;47.636;7.692;2022-10-15T00:08:36;98005.53;;;15.41;100.00
9474;BME280;8865;47.636;7.692;2022-10-15T00:11:05;97999.25;;;15.42;100.00
9474;BME280;8865;47.636;7.692;2022-10-15T00:13:31;97999.41;;;15.40;100.00
9474;BME280;8865;47.636;7.692;2022-10-15T00:15:58;97997.78;;;15.39;100.00
9474;BME280;8865;47.636;7.692;2022-10-15T00:18:24;98002.75;;;15.42;100.00
9474;BME280;8865;47.636;7.692;2022-10-15T00:20:49;98001.91;;;15.42;100.00
9474;BME280;8865;47.636;7.692;2022-10-15T00:23:15;98000.44;;;15.39;100.00
9474;BME280;8865;47.636;7.692;2022-10-15T00:25:41;97992.34;;;15.41;100.00
9474;BME280;8865;47.636;7.692;2022-10-15T00:28:07;97993.97;;;15.42;100.00
9474;BME280;8865;47.636;7.692;2022-10-15T00:30:33;98007.16;;;15.42;100.00
9474;BME280;8865;47.636;7.692;2022-10-15T00:32:59;98004.53;;;15.42;100.00
9474;BME280;8865;47.636;7.692;2022-10-15T00:35:25;97999.75;;;15.45;100.00
9474;BME280;8865;47.636;7.692;2022-10-15T00:37:51;98009.31;;;15.46;100.00
9474;BME280;8865;47.636;7.692;2022-10-15T00:40:17;98011.78;;;15.48;100.00
9474;BME280;8865;47.636;7.692;2022-10-15T00:42:45;98006.50;;;15.48;100.00
9474;BME280;8865;47.636;7.692;2022-10-15T00:45:12;98004.88;;;15.47;100.00
9474;BME280;8865;47.636;7.692;2022-10-15T00:47:48;98011.13;;;15.46;100.00
9474;BME280;8865;47.636;7.692;2022-10-15T00:50:18;98004.53;;;15.50;100.00
9474;BME280;8865;47.636;7.692;2022-10-15T00:55:36;98009.09;;;15.64;100.00
9474;BME280;8865;47.636;7.692;2022-10-15T00:58:08;98019.78;;;15.71;100.00
9474;BME280;8865;47.636;7.692;2022-10-15T01:00:35;98013.16;;;15.75;100.00
9474;BME280;8865;47.636;7.692;2022-10-15T01:03:02;98016.97;;;15.81;100.00
9474;BME280;8865;47.636;7.692;2022-10-15T01:05:29;98020.41;;;15.89;100.00
9474;BME280;8865;47.636;7.692;2022-10-15T01:07:55;98012.78;;;15.95;100.00
9474;BME280;8865;47.636;7.692;2022-10-15T01:10:24;98006.34;;;15.97;100.00
9474;BME280;8865;47.636;7.692;2022-10-15T01:13:06;97999.06;;;15.99;100.00
9474;BME280;8865;47.636;7.692;2022-10-15T01:15:55;97994.25;;;16.03;100.00
9474;BME280;8865;47.636;7.692;2022-10-15T01:18:32;97996.88;;;16.11;100.00
9474;BME280;8865;47.636;7.692;2022-10-15T01:27:13;97976.31;;;16.21;100.00
9474;BME280;8865;47.636;7.692;2022-10-15T01:30:35;97978.13;;;16.21;100.00
9474;BME280;8865;47.636;7.692;2022-10-15T01:33:17;97979.78;;;16.22;100.00
9474;BME280;8865;47.636;7.692;2022-10-15T01:35:49;97973.13;;;16.26;100.00
9474;BME280;8865;47.636;7.692;2022-10-15T01:38:39;97967.84;;;16.26;100.00
9474;BME280;8865;47.636;7.692;2022-10-15T01:44:08;97963.41;;;16.27;100.00
9474;BME280;8865;47.636;7.692;2022-10-15T01:47:03;97965.88;;;16.28;100.00
9474;BME280;8865;47.636;7.692;2022-10-15T01:49:33;97959.56;;;16.29;100.00
9474;BME280;8865;47.636;7.692;2022-10-15T01:52:05;97958.75;;;16.29;100.00
9474;BME280;8865;47.636;7.692;2022-10-15T01:54:33;97963.88;;;16.30;100.00
9474;BME280;8865;47.636;7.692;2022-10-15T01:57:01;97955.94;;;16.30;100.00
9474;BME280;8865;47.636;7.692;2022-10-15T01:59:31;97962.22;;;16.29;100.00
9474;BME280;8865;47.636;7.692;2022-10-15T02:01:57;97952.47;;;16.30;100.00
9474;BME280;8865;47.636;7.692;2022-10-15T02:04:32;97959.56;;;16.29;100.00
9474;BME280;8865;47.636;7.692;2022-10-15T02:16:10;97950.31;;;16.33;100.00
9474;BME280;8865;47.636;7.692;2022-10-15T02:26:12;97962.19;;;16.37;100.00
9474;BME280;8865;47.636;7.692;2022-10-15T02:28:41;97958.88;;;16.35;100.00
9474;BME280;8865;47.636;7.692;2022-10-15T02:31:09;97955.41;;;16.35;100.00
9474;BME280;8865;47.636;7.692;2022-10-15T02:33:38;97952.13;;;16.33;100.00
9474;BME280;8865;47.636;7.692;2022-10-15T02:36:05;97945.81;;;16.34;100.00
9474;BME280;8865;47.636;7.692;2022-10-15T02:38:32;97946.66;;;16.34;100.00
9474;BME280;8865;47.636;7.692;2022-10-15T02:41:00;97943.00;;;16.35;100.00
9474;BME280;8865;47.636;7.692;2022-10-15T02:43:26;97946.00;;;16.32;100.00
9474;BME280;8865;47.636;7.692;2022-10-15T02:45:52;97939.09;;;16.31;100.00
9474;BME280;8865;47.636;7.692;2022-10-15T02:48:18;97930.03;;;16.25;100.00
9474;BME280;8865;47.636;7.692;2022-10-15T02:50:44;97928.53;;;16.31;100.00
9474;BME280;8865;47.636;7.692;2022-10-15T02:53:10;97930.16;;;16.32;100.00
9474;BME280;8865;47.636;7.692;2022-10-15T02:55:36;97946.34;;;16.29;100.00
9474;BME280;8865;47.636;7.692;2022-10-15T02:58:02;97946.00;;;16.32;100.00
9474;BME280;8865;47.636;7.692;2022-10-15T03:00:28;97944.38;;;16.31;100.00
9474;BME280;8865;47.636;7.692;2022-10-15T03:02:54;97946.72;;;16.26;100.00
9474;BME280;8865;47.636;7.692;2022-10-15T03:05:21;97950.91;;;16.20;100.00
9474;BME280;8865;47.636;7.692;2022-10-15T03:07:46;97938.97;;;16.24;100.00
9474;BME280;8865;47.636;7.692;2022-10-15T03:10:12;97930.22;;;16.24;100.00
9474;BME280;8865;47.636;7.692;2022-10-15T03:12:38;97927.41;;;16.25;100.00
9474;BME280;8865;47.636;7.692;2022-10-15T03:15:05;97928.03;;;16.28;100.00
9474;BME280;8865;47.636;7.692;2022-10-15T03:17:31;97935.16;;;16.27;100.00
9474;BME280;8865;47.636;7.692;2022-10-15T03:19:57;97932.97;;;16.31;100.00
9474;BME280;8865;47.636;7.692;2022-10-15T03:22:23;97944.38;;;16.31;100.00
9474;BME280;8865;47.636;7.692;2022-10-15T03:24:49;97939.72;;;16.33;100.00
9474;BME280;8865;47.636;7.692;2022-10-15T03:27:15;97943.19;;;16.34;100.00
9474;BME280;8865;47.636;7.692;2022-10-15T03:29:41;97944.19;;;16.33;100.00
9474;BME280;8865;47.636;7.692;2022-10-15T03:32:07;97947.66;;;16.33;100.00
9474;BME280;8865;47.636;7.692;2022-10-15T03:34:33;97939.28;;;16.30;100.00
9474;BME280;8865;47.636;7.692;2022-10-15T03:36:59;97925.88;;;16.31;100.00
9474;BME280;8865;47.636;7.692;2022-10-15T03:39:25;97928.53;;;16.31;100.00
9474;BME280;8865;47.636;7.692;2022-10-15T03:41:52;97932.44;;;16.35;100.00
9474;BME280;8865;47.636;7.692;2022-10-15T03:44:18;97942.38;;;16.33;100.00
9474;BME280;8865;47.636;7.692;2022-10-15T03:46:44;97933.47;;;16.34;100.00
9474;BME280;8865;47.636;7.692;2022-10-15T03:49:10;97916.94;;;16.32;100.00
9474;BME280;8865;47.636;7.692;2022-10-15T03:51:36;97929.34;;;16.32;100.00
9474;BME280;8865;47.636;7.692;2022-10-15T03:54:02;97922.88;;;16.34;100.00
9474;BME280;8865;47.636;7.692;2022-10-15T03:56:28;97924.84;;;16.32;100.00
9474;BME280;8865;47.636;7.692;2022-10-15T03:58:54;97932.44;;;16.35;100.00
9474;BME280;8865;47.636;7.692;2022-10-15T04:01:20;97926.88;;;16.30;100.00
9474;BME280;8865;47.636;7.692;2022-10-15T04:03:46;97934.16;;;16.28;100.00
9474;BME280;8865;47.636;7.692;2022-10-15T04:06:12;97936.81;;;16.28;100.00
9474;BME280;8865;47.636;7.692;2022-10-15T04:08:38;97933.66;;;16.24;100.00
9474;BME280;8865;47.636;7.692;2022-10-15T04:11:04;97940.09;;;16.30;100.00
9474;BME280;8865;47.636;7.692;2022-10-15T04:13:30;97944.19;;;16.33;100.00
9474;BME280;8865;47.636;7.692;2022-10-15T04:15:56;97935.16;;;16.27;100.00
9474;BME280;8865;47.636;7.692;2022-10-15T04:18:22;97935.97;;;16.28;100.00
9474;BME280;8865;47.636;7.692;2022-10-15T04:20:48;97939.81;;;16.25;100.00
9474;BME280;8865;47.636;7.692;2022-10-15T04:23:15;97946.72;;;16.26;100.00
9474;BME280;8865;47.636;7.692;2022-10-15T04:25:42;97932.41;;;16.20;100.00
9474;BME280;8865;47.636;7.692;2022-10-15T04:28:08;97942.44;;;16.25;100.00
9474;BME280;8865;47.636;7.692;2022-10-15T04:30:34;97946.72;;;16.26;100.00
9474;BME280;8865;47.636;7.692;2022-10-15T04:33:00;97950.03;;;16.28;100.00
9474;BME280;8865;47.636;7.692;2022-10-15T04:35:26;97945.09;;;16.25;100.00
9474;BME280;8865;47.636;7.692;2022-10-15T04:37:52;97946.34;;;16.29;100.00
9474;BME280;8865;47.636;7.692;2022-10-15T04:40:18;97947.84;;;16.32;100.00
9474;BME280;8865;47.636;7.692;2022-10-15T04:42:44;97938.75;;;16.34;100.00
9474;BME280;8865;47.636;7.692;2022-10-15T04:45:10;97944.03;;;16.34;100.00
9474;BME280;8865;47.636;7.692;2022-10-15T04:47:36;97943.19;;;16.34;100.00
9474;BME280;8865;47.636;7.692;2022-10-15T04:50:02;97954.59;;;16.34;100.00
9474;BME280;8865;47.636;7.692;2022-10-15T04:52:28;97952.59;;;16.36;100.00
9474;BME280;8865;47.636;7.692;2022-10-15T04:54:54;97956.22;;;16.35;100.00
9474;BME280;8865;47.636;7.692;2022-10-15T04:57:20;97961.88;;;16.32;100.00
9474;BME280;8865;47.636;7.692;2022-10-15T04:59:46;97949.94;;;16.36;100.00
9474;BME280;8865;47.636;7.692;2022-10-15T05:02:12;97949.13;;;16.36;100.00
9474;BME280;8865;47.636;7.692;2022-10-15T05:04:38;97968.09;;;16.39;100.00
9474;BME280;8865;47.636;7.692;2022-10-15T05:07:04;97965.63;;;16.38;100.00
9474;BME280;8865;47.636;7.692;2022-10-15T05:09:30;97955.88;;;16.38;100.00
9474;BME280;8865;47.636;7.692;2022-10-15T05:11:56;97971.69;;;16.47;100.00
9474;BME280;8865;47.636;7.692;2022-10-15T05:14:22;97973.84;;;16.43;100.00
9474;BME280;8865;47.636;7.692;2022-10-15T05:16:48;97963.63;;;16.40;100.00
9474;BME280;8865;47.636;7.692;2022-10-15T05:19:14;97952.25;;;16.39;100.00
9474;BME280;8865;47.636;7.692;2022-10-15T05:21:41;97969.41;;;16.43;100.00
9474;BME280;8865;47.636;7.692;2022-10-15T05:24:08;97968.63;;;16.35;100.00
9474;BME280;8865;47.636;7.692;2022-10-15T05:26:35;97979.31;;;16.41;100.00
9474;BME280;8865;47.636;7.692;2022-10-15T05:29:02;97976.03;;;16.39;100.00
9474;BME280;8865;47.636;7.692;2022-10-15T05:31:29;97994.53;;;16.39;100.00
9474;BME280;8865;47.636;7.692;2022-10-15T05:33:55;98000.63;;;16.40;100.00
9474;BME280;8865;47.636;7.692;2022-10-15T05:36:24;98012.41;;;16.37;100.00
9474;BME280;8865;47.636;7.692;2022-10-15T05:39:01;98006.63;;;16.34;100.00
9474;BME280;8865;47.636;7.692;2022-10-15T05:41:29;98007.81;;;16.31;100.00
9474;BME280;8865;47.636;7.692;2022-10-15T05:43:56;98004.66;;;16.28;100.00
9474;BME280;8865;47.636;7.692;2022-10-15T05:46:23;98001.75;;;16.22;100.00
9474;BME280;8865;47.636;7.692;2022-10-15T05:48:51;98016.28;;;16.18;100.00
9474;BME280;8865;47.636;7.692;2022-10-15T05:51:17;98007.09;;;16.14;100.00
9474;BME280;8865;47.636;7.692;2022-10-15T05:53:43;98014.16;;;16.14;100.00
9474;BME280;8865;47.636;7.692;2022-10-15T05:56:14;98015.34;;;16.11;100.00
9474;BME280;8865;47.636;7.692;2022-10-15T05:58:41;98010.88;;;16.12;100.00
9474;BME280;8865;47.636;7.692;2022-10-15T06:01:09;98011.69;;;16.12;100.00
9474;BME280;8865;47.636;7.692;2022-10-15T06:03:35;98008.78;;;16.07;100.00
9474;BME280;8865;47.636;7.692;2022-10-15T06:06:01;98011.69;;;16.12;100.00
9474;BME280;8865;47.636;7.692;2022-10-15T06:08:29;98016.00;;;16.13;100.00
9474;BME280;8865;47.636;7.692;2022-10-15T06:11:01;98023.94;;;16.13;100.00
9474;BME280;8865;47.636;7.692;2022-10-15T06:13:27;98014.50;;;16.11;100.00
9474;BME280;8865;47.636;7.692;2022-10-15T06:15:53;98011.88;;;16.11;100.00
9474;BME280;8865;47.636;7.692;2022-10-15T06:18:19;98010.25;;;16.10;100.00
9474;BME280;8865;47.636;7.692;2022-10-15T06:20:51;98013.53;;;16.12;100.00
9474;BME280;8865;47.636;7.692;2022-10-15T06:23:18;98023.59;;;16.16;100.00
9474;BME280;8865;47.636;7.692;2022-10-15T06:25:44;98020.47;;;16.13;100.00
9474;BME280;8865;47.636;7.692;2022-10-15T06:28:10;98023.22;;;16.19;100.00
9474;BME280;8865;47.636;7.692;2022-10-15T06:30:36;98029.66;;;16.25;100.00
9474;BME280;8865;47.636;7.692;2022-10-15T06:33:02;98025.53;;;16.22;100.00
9474;BME280;8865;47.636;7.692;2022-10-15T06:35:28;98022.19;;;16.29;100.00
9474;BME280;8865;47.636;7.692;2022-10-15T06:38:03;98027.41;;;16.37;100.00
9474;BME280;8865;47.636;7.692;2022-10-15T06:40:30;98023.59;;;16.39;100.00
9474;BME280;8865;47.636;7.692;2022-10-15T06:43:06;98037.59;;;16.48;100.00
9474;BME280;8865;47.636;7.692;2022-10-15T06:45:37;98049.75;;;16.57;100.00
9474;BME280;8865;47.636;7.692;2022-10-15T06:48:05;98050.50;;;16.66;100.00
9474;BME280;8865;47.636;7.692;2022-10-15T06:50:33;98055.09;;;16.72;100.00
9474;BME280;8865;47.636;7.692;2022-10-15T06:52:59;98059.69;;;16.78;100.00
9474;BME280;8865;47.636;7.692;2022-10-15T06:55:26;98063.25;;;16.86;100.00
9474;BME280;8865;47.636;7.692;2022-10-15T06:57:54;98053.66;;;16.93;100.00
9474;BME280;8865;47.636;7.692;2022-10-15T07:00:25;98042.00;;;17.02;100.00
9474;BME280;8865;47.636;7.692;2022-10-15T07:02:52;98035.66;;;17.11;100.00
9474;BME280;8865;47.636;7.692;2022-10-15T07:05:19;98022.88;;;17.30;100.00
9474;BME280;8865;47.636;7.692;2022-10-15T07:07:52;98035.78;;;17.48;100.00
9474;BME280;8865;47.636;7.692;2022-10-15T07:10:18;98025.72;;;17.58;100.00
9474;BME280;8865;47.636;7.692;2022-10-15T07:12:44;98017.34;;;17.70;100.00
9474;BME280;8865;47.636;7.692;2022-10-15T07:15:10;98004.06;;;17.84;100.00
9474;BME280;8865;47.636;7.692;2022-10-15T07:17:36;98003.88;;;18.01;100.00
9474;BME280;8865;47.636;7.692;2022-10-15T07:20:05;98013.53;;;18.24;100.00
9474;BME280;8865;47.636;7.692;2022-10-15T07:22:31;98032.16;;;18.52;100.00
9474;BME280;8865;47.636;7.692;2022-10-15T07:24:57;98012.22;;;18.78;100.00
9474;BME280;8865;47.636;7.692;2022-10-15T07:27:23;97993.97;;;18.89;100.00
9474;BME280;8865;47.636;7.692;2022-10-15T07:29:49;97981.09;;;18.86;100.00
9474;BME280;8865;47.636;7.692;2022-10-15T07:32:16;97981.38;;;18.77;100.00
9474;BME280;8865;47.636;7.692;2022-10-15T07:34:42;97982.09;;;18.64;100.00
9474;BME280;8865;47.636;7.692;2022-10-15T07:37:08;97993.22;;;18.52;100.00
9474;BME280;8865;47.636;7.692;2022-10-15T07:39:33;98001.41;;;18.36;100.00
9474;BME280;8865;47.636;7.692;2022-10-15T07:41:59;97998.50;;;18.31;100.00
9474;BME280;8865;47.636;7.692;2022-10-15T07:44:25;98014.44;;;18.31;100.00
9474;BME280;8865;47.636;7.692;2022-10-15T07:46:51;98017.31;;;18.36;100.00
9474;BME280;8865;47.636;7.692;2022-10-15T07:49:17;98021.88;;;18.42;100.00
9474;BME280;8865;47.636;7.692;2022-10-15T07:51:43;98016.00;;;18.47;100.00
9474;BME280;8865;47.636;7.692;2022-10-15T07:54:09;98013.53;;;18.45;100.00
9474;BME280;8865;47.636;7.692;2022-10-15T07:56:35;98024.16;;;18.45;100.00
9474;BME280;8865;47.636;7.692;2022-10-15T07:59:01;98007.91;;;18.33;100.00
9474;BME280;8865;47.636;7.692;2022-10-15T08:01:27;98026.09;;;18.36;100.00
9474;BME280;8865;47.636;7.692;2022-10-15T08:03:53;98018.06;;;18.30;100.00
9474;BME280;8865;47.636;7.692;2022-10-15T08:06:19;98022.47;;;18.23;100.00
9474;BME280;8865;47.636;7.692;2022-10-15T08:08:45;98013.19;;;18.12;100.00
9474;BME280;8865;47.636;7.692;2022-10-15T08:11:14;98014.56;;;18.08;100.00
9474;BME280;8865;47.636;7.692;2022-10-15T08:13:41;98019.31;;;18.12;100.00
9474;BME280;8865;47.636;7.692;2022-10-15T08:16:08;98015.47;;;18.15;100.00
9474;BME280;8865;47.636;7.692;2022-10-15T08:18:36;98015.47;;;18.15;100.00
9474;BME280;8865;47.636;7.692;2022-10-15T08:21:04;98028.81;;;18.22;100.00
9474;BME280;8865;47.636;7.692;2022-10-15T08:23:31;98014.53;;;18.23;100.00
9474;BME280;8865;47.636;7.692;2022-10-15T08:25:58;98001.63;;;18.19;100.00
9474;BME280;8865;47.636;7.692;2022-10-15T08:28:28;98024.84;;;18.32;100.00
9474;BME280;8865;47.636;7.692;2022-10-15T08:30:56;98033.47;;;18.41;100.00
9474;BME280;8865;47.636;7.692;2022-10-15T08:33:23;98028.44;;;18.46;100.00
9474;BME280;8865;47.636;7.692;2022-10-15T08:35:51;98020.69;;;18.45;100.00
9474;BME280;8865;47.636;7.692;2022-10-15T08:38:17;98014.25;;;18.54;100.00
9474;BME280;8865;47.636;7.692;2022-10-15T08:40:51;98018.84;;;18.67;100.00
9474;BME280;8865;47.636;7.692;2022-10-15T08:43:36;98023.25;;;18.81;100.00
9474;BME280;8865;47.636;7.692;2022-10-15T08:46:08;98025.63;;;18.91;100.00
9474;BME280;8865;47.636;7.692;2022-10-15T08:48:40;98019.16;;;19.00;100.00
9474;BME280;8865;47.636;7.692;2022-10-15T08:51:17;98008.19;;;19.10;100.00
9474;BME280;8865;47.636;7.692;2022-10-15T08:53:59;98019.75;;;19.24;100.00
9474;BME280;8865;47.636;7.692;2022-10-15T08:56:29;98008.72;;;19.27;100.00
9474;BME280;8865;47.636;7.692;2022-10-15T09:01:57;98037.34;;;19.60;100.00
9474;BME280;8865;47.636;7.692;2022-10-15T09:04:31;98027.13;;;19.57;100.00
9474;BME280;8865;47.636;7.692;2022-10-15T09:07:06;98036.09;;;19.56;100.00
9474;BME280;8865;47.636;7.692;2022-10-15T09:15:03;98039.34;;;19.23;100.00
9474;BME280;8865;47.636;7.692;2022-10-15T09:17:31;98034.31;;;19.06;100.00
9474;BME280;8865;47.636;7.692;2022-10-15T09:20:02;98023.16;;;18.89;100.00
9474;BME280;8865;47.636;7.692;2022-10-15T09:22:30;98037.34;;;18.82;100.00
9474;BME280;8865;47.636;7.692;2022-10-15T09:24:57;98035.09;;;18.79;100.00
9474;BME280;8865;47.636;7.692;2022-10-15T09:27:36;98036.09;;;18.78;100.00
9474;BME280;8865;47.636;7.692;2022-10-15T09:30:32;98023.44;;;18.80;100.00
9474;BME280;8865;47.636;7.692;2022-10-15T09:33:14;98039.81;;;18.83;100.00
9474;BME280;8865;47.636;7.692;2022-10-15T09:35:47;98036.59;;;18.66;100.00
9474;BME280;8865;47.636;7.692;2022-10-15T09:38:30;98041.72;;;18.68;100.00
9474;BME280;8865;47.636;7.692;2022-10-15T09:43:48;98033.75;;;18.68;100.00
9474;BME280;8865;47.636;7.692;2022-10-15T09:46:16;98026.38;;;18.63;100.00
9474;BME280;8865;47.636;7.692;2022-10-15T09:51:24;98033.50;;;18.63;100.00
9474;BME280;8865;47.636;7.692;2022-10-15T09:56:44;98045.81;;;18.70;100.00
9474;BME280;8865;47.636;7.692;2022-10-15T09:59:18;98032.31;;;18.65;100.00
9474;BME280;8865;47.636;7.692;2022-10-15T10:02:01;98051.56;;;18.74;100.00
9474;BME280;8865;47.636;7.692;2022-10-15T10:04:29;98060.59;;;18.80;100.00
9474;BME280;8865;47.636;7.692;2022-10-15T10:07:02;98063.88;;;18.82;100.00
9474;BME280;8865;47.636;7.692;2022-10-15T10:09:52;98066.00;;;18.86;100.00
9474;BME280;8865;47.636;7.692;2022-10-15T10:12:21;98090.50;;;18.88;100.00
9474;BME280;8865;47.636;7.692;2022-10-15T10:15:03;98079.13;;;18.95;100.00
9474;BME280;8865;47.636;7.692;2022-10-15T10:17:29;98081.78;;;18.95;100.00
9474;BME280;8865;47.636;7.692;2022-10-15T10:22:47;98075.16;;;19.05;100.00
9474;BME280;8865;47.636;7.692;2022-10-15T10:28:03;98074.34;;;19.33;100.00
9474;BME280;8865;47.636;7.692;2022-10-15T10:33:20;98061.44;;;19.58;100.00
9474;BME280;8865;47.636;7.692;2022-10-15T10:35:49;98050.44;;;19.61;100.00
9474;BME280;8865;47.636;7.692;2022-10-15T10:38:18;98049.41;;;19.62;100.00
9474;BME280;8865;47.636;7.692;2022-10-15T10:40:49;98047.59;;;19.63;100.00
9474;BME280;8865;47.636;7.692;2022-10-15T10:46:02;98023.84;;;19.96;100.00
9474;BME280;8865;47.636;7.692;2022-10-15T10:48:44;98037.09;;;20.38;100.00
9474;BME280;8865;47.636;7.692;2022-10-15T10:51:23;98032.38;;;20.47;100.00
9474;BME280;8865;47.636;7.692;2022-10-15T10:53:57;98038.50;;;20.41;100.00
9474;BME280;8865;47.636;7.692;2022-10-15T10:56:32;98051.41;;;20.30;100.00
9474;BME280;8865;47.636;7.692;2022-10-15T10:59:22;98044.63;;;20.21;100.00
9474;BME280;8865;47.636;7.692;2022-10-15T11:01:50;98028.03;;;20.19;100.00
9474;BME280;8865;47.636;7.692;2022-10-15T11:04:32;98018.63;;;20.30;100.00
9474;BME280;8865;47.636;7.692;2022-10-15T11:15:29;97971.78;;;23.96;100.00
9474;BME280;8865;47.636;7.692;2022-10-15T11:18:46;97971.22;;;24.78;100.00
9474;BME280;8865;47.636;7.692;2022-10-15T11:24:55;97964.47;;;25.47;100.00
9474;BME280;8865;47.636;7.692;2022-10-15T11:29:41;97961.06;;;25.63;100.00
9474;BME280;8865;47.636;7.692;2022-10-15T11:35:28;97948.81;;;27.88;90.67
9474;BME280;8865;47.636;7.692;2022-10-15T11:38:21;97942.16;;;29.20;79.47
9474;BME280;8865;47.636;7.692;2022-10-15T11:40:50;97935.66;;;31.60;67.04
9474;BME280;8865;47.636;7.692;2022-10-15T11:45:53;97930.88;;;31.21;58.79
9474;BME280;8865;47.636;7.692;2022-10-15T11:50:50;97934.63;;;29.81;62.98
9474;BME280;8865;47.636;7.692;2022-10-15T11:56:05;97907.72;;;30.63;60.45
9474;BME280;8865;47.636;7.692;2022-10-15T11:58:37;97910.41;;;31.69;54.14
9474;BME280;8865;47.636;7.692;2022-10-15T12:01:04;97915.00;;;30.98;54.83
9474;BME280;8865;47.636;7.692;2022-10-15T12:03:33;97920.91;;;30.08;54.33
9474;BME280;8865;47.636;7.692;2022-10-15T12:06:02;97919.28;;;30.17;54.54
9474;BME280;8865;47.636;7.692;2022-10-15T12:08:31;97920.66;;;30.35;53.91
9474;BME280;8865;47.636;7.692;2022-10-15T12:11:08;97927.97;;;30.86;53.35
9474;BME280;8865;47.636;7.692;2022-10-15T12:13:49;97927.66;;;32.34;51.49
9474;BME280;8865;47.636;7.692;2022-10-15T12:18:44;97913.44;;;33.78;45.57
9474;BME280;8865;47.636;7.692;2022-10-15T12:21:28;97912.81;;;33.14;45.45
9474;BME280;8865;47.636;7.692;2022-10-15T12:23:54;97906.31;;;32.22;47.49
9474;BME280;8865;47.636;7.692;2022-10-15T12:28:49;97909.50;;;31.29;45.83
9474;BME280;8865;47.636;7.692;2022-10-15T12:31:16;97920.06;;;29.97;50.18
9474;BME280;8865;47.636;7.692;2022-10-15T12:33:51;97913.22;;;28.68;59.13
9474;BME280;8865;47.636;7.692;2022-10-15T12:41:45;97905.56;;;27.06;85.18
9474;BME280;8865;47.636;7.692;2022-10-15T12:46:43;97890.91;;;26.97;87.57
9474;BME280;8865;47.636;7.692;2022-10-15T12:51:50;97896.59;;;26.16;88.27
9474;BME280;8865;47.636;7.692;2022-10-15T12:54:31;97888.50;;;25.70;95.84
9474;BME280;8865;47.636;7.692;2022-10-15T12:56:58;97897.13;;;25.31;100.00
9474;BME280;8865;47.636;7.692;2022-10-15T12:59:52;97890.63;;;25.04;100.00
9474;BME280;8865;47.636;7.692;2022-10-15T13:04:57;97903.06;;;24.39;100.00
9474;BME280;8865;47.636;7.692;2022-10-15T13:07:23;97898.88;;;24.01;100.00
9474;BME280;8865;47.636;7.692;2022-10-15T13:09:49;97894.75;;;23.68;100.00
9474;BME280;8865;47.636;7.692;2022-10-15T13:12:24;97897.41;;;23.38;100.00
9474;BME280;8865;47.636;7.692;2022-10-15T13:14:52;97893.78;;;23.07;100.00
9474;BME280;8865;47.636;7.692;2022-10-15T13:17:20;97900.41;;;22.86;100.00
9474;BME280;8865;47.636;7.692;2022-10-15T13:20:20;97902.59;;;22.70;100.00
9474;BME280;8865;47.636;7.692;2022-10-15T13:22:33;97899.59;;;22.60;100.00
9474;BME280;8865;47.636;7.692;2022-10-15T13:24:59;97899.44;;;22.55;100.00
9474;BME280;8865;47.636;7.692;2022-10-15T13:27:32;97900.69;;;22.52;100.00
9474;BME280;8865;47.636;7.692;2022-10-15T13:30:04;97896.00;;;22.47;100.00
9474;BME280;8865;47.636;7.692;2022-10-15T13:32:31;97880.28;;;22.39;100.00
9474;BME280;8865;47.636;7.692;2022-10-15T13:34:58;97879.72;;;22.31;100.00
9474;BME280;8865;47.636;7.692;2022-10-15T13:37:29;97884.31;;;22.17;100.00
9474;BME280;8865;47.636;7.692;2022-10-15T13:39:55;97884.13;;;22.11;100.00
9474;BME280;8865;47.636;7.692;2022-10-15T13:42:22;97893.75;;;22.12;100.00
9474;BME280;8865;47.636;7.692;2022-10-15T13:45:14;97899.59;;;22.03;100.00
9474;BME280;8865;47.636;7.692;2022-10-15T13:47:41;97890.28;;;21.80;100.00
9474;BME280;8865;47.636;7.692;2022-10-15T13:50:26;97897.34;;;21.54;100.00
9474;BME280;8865;47.636;7.692;2022-10-15T13:52:57;97932.66;;;21.30;100.00
9474;BME280;8865;47.636;7.692;2022-10-15T13:55:24;97936.00;;;21.12;100.00
9474;BME280;8865;47.636;7.692;2022-10-15T13:57:52;97933.38;;;20.98;100.00
9474;BME280;8865;47.636;7.692;2022-10-15T14:00:23;97940.53;;;20.91;100.00
9474;BME280;8865;47.636;7.692;2022-10-15T14:03:08;97948.31;;;20.86;100.00
9474;BME280;8865;47.636;7.692;2022-10-15T14:05:36;97938.06;;;20.76;100.00
9474;BME280;8865;47.636;7.692;2022-10-15T14:08:02;97936.03;;;20.72;100.00
9474;BME280;8865;47.636;7.692;2022-10-15T14:10:28;97933.19;;;20.66;100.00
9474;BME280;8865;47.636;7.692;2022-10-15T14:12:54;97941.38;;;20.78;100.00
9474;BME280;8865;47.636;7.692;2022-10-15T14:15:39;97934.59;;;20.89;100.00
9474;BME280;8865;47.636;7.692;2022-10-15T14:18:05;97929.88;;;20.91;100.00
9474;BME280;8865;47.636;7.692;2022-10-15T14:20:32;97930.91;;;20.90;100.00
9474;BME280;8865;47.636;7.692;2022-10-15T14:22:57;97916.16;;;20.94;100.00
9474;BME280;8865;47.636;7.692;2022-10-15T14:25:24;97926.19;;;20.99;100.00
9474;BME280;8865;47.636;7.692;2022-10-15T14:27:50;97908.34;;;20.99;100.00
9474;BME280;8865;47.636;7.692;2022-10-15T14:30:21;97911.66;;;21.01;100.00
9474;BME280;8865;47.636;7.692;2022-10-15T14:32:48;97916.75;;;21.03;100.00
9474;BME280;8865;47.636;7.692;2022-10-15T14:37:57;97914.53;;;20.80;100.00
9474;BME280;8865;47.636;7.692;2022-10-15T14:40:23;97922.91;;;20.63;100.00
9474;BME280;8865;47.636;7.692;2022-10-15T14:47:52;97954.59;;;20.31;100.00
9474;BME280;8865;47.636;7.692;2022-10-15T14:50:21;97956.66;;;20.29;100.00
9474;BME280;8865;47.636;7.692;2022-10-15T14:52:49;97958.50;;;20.29;100.00
9474;BME280;8865;47.636;7.692;2022-10-15T14:57:44;97961.56;;;20.32;100.00
9474;BME280;8865;47.636;7.692;2022-10-15T15:00:23;97964.22;;;20.32;100.00
9474;BME280;8865;47.636;7.692;2022-10-15T15:02:50;97968.31;;;20.28;100.00
9474;BME280;8865;47.636;7.692;2022-10-15T15:05:20;97963.19;;;20.27;100.00
9474;BME280;8865;47.636;7.692;2022-10-15T15:07:46;97947.03;;;20.28;100.00
9474;BME280;8865;47.636;7.692;2022-10-15T15:10:15;97935.78;;;20.33;100.00
9474;BME280;8865;47.636;7.692;2022-10-15T15:12:45;97931.50;;;20.32;100.00
9474;BME280;8865;47.636;7.692;2022-10-15T15:15:12;97929.66;;;20.32;100.00